Time;durP1;ratioP1;P1;durP2;ratioP2;P2;SDS_P1;SDS_P2;PMS_P1;PMS_P2;Temp;Humidity;BMP_temperature;BMP_pressure;BME280_temperature;BME280_humidity;BME280_pressure;Samples;Min_cycle;Max_cycle;Signal;HPM_P1;HPM_P2
2021/06/12 04:31:29;;;;;;;12.83;11.70;;;15.50;99.90;;;;;;5488383;22;20507;-78
2021/06/12 04:33:54;;;;;;;13.17;12.00;;;15.60;99.90;;;;;;4965316;28;20439;-79
2021/06/12 04:36:20;;;;;;;15.83;12.57;;;15.60;99.90;;;;;;4971866;28;20242;-79
2021/06/12 04:38:45;;;;;;;16.40;14.57;;;15.70;99.90;;;;;;4969703;28;20271;-80
2021/06/12 04:41:11;;;;;;;13.53;12.33;;;15.80;99.90;;;;;;4968415;28;20207;-79
2021/06/12 04:43:37;;;;;;;13.73;12.53;;;15.90;99.90;;;;;;4953076;29;20243;-79
2021/06/12 04:46:02;;;;;;;14.03;12.73;;;16.00;99.90;;;;;;4955554;29;20207;-79
2021/06/12 04:48:28;;;;;;;15.63;12.77;;;16.10;99.90;;;;;;4953999;29;20184;-79
2021/06/12 04:50:53;;;;;;;14.53;12.60;;;16.20;99.90;;;;;;4951480;28;20267;-79
2021/06/12 04:53:19;;;;;;;13.63;12.33;;;16.40;99.90;;;;;;4950697;29;20200;-79
2021/06/12 04:55:45;;;;;;;12.90;11.77;;;16.60;99.90;;;;;;4953444;29;20204;-79
2021/06/12 04:58:10;;;;;;;13.20;11.83;;;16.80;99.90;;;;;;4955831;28;20213;-79
2021/06/12 05:00:38;;;;;;;10.97;9.97;;;17.20;99.90;;;;;;4950815;29;20200;-79
2021/06/12 05:03:04;;;;;;;10.70;9.53;;;18.10;99.90;;;;;;4954305;29;20290;-79
2021/06/12 05:05:30;;;;;;;9.43;8.33;;;19.50;99.90;;;;;;4949963;28;20457;-79
2021/06/12 05:07:55;;;;;;;10.30;9.50;;;21.00;99.90;;;;;;4954054;29;20427;-78
2021/06/12 05:10:21;;;;;;;9.63;8.77;;;22.10;99.90;;;;;;4953558;28;20518;-79
2021/06/12 05:12:47;;;;;;;9.33;8.60;;;23.20;99.90;;;;;;4953982;28;20217;-80
2021/06/12 05:15:13;;;;;;;9.07;8.27;;;23.60;99.90;;;;;;4953892;28;20252;-77
2021/06/12 05:17:41;;;;;;;8.80;8.00;;;24.30;99.90;;;;;;4951857;28;20689;-78
2021/06/12 05:20:08;;;;;;;10.40;7.67;;;24.80;99.90;;;;;;4953820;28;20424;-78
2021/06/12 05:22:34;;;;;;;9.10;8.17;;;24.90;99.90;;;;;;4945186;28;20558;-77
2021/06/12 05:25:00;;;;;;;9.07;7.83;;;24.80;99.90;;;;;;4953906;28;21212;-79
2021/06/12 05:27:25;;;;;;;7.60;7.00;;;24.70;99.90;;;;;;4950398;28;20539;-79
2021/06/12 05:29:51;;;;;;;7.97;7.37;;;24.60;99.90;;;;;;4955037;28;20183;-79
2021/06/12 05:32:17;;;;;;;9.53;8.63;;;24.40;99.90;;;;;;4949905;28;20220;-79
2021/06/12 05:34:43;;;;;;;8.37;7.70;;;24.50;99.90;;;;;;4953941;28;20256;-79
2021/06/12 05:37:10;;;;;;;9.60;8.70;;;23.70;99.90;;;;;;4951706;28;20236;-79
2021/06/12 05:39:35;;;;;;;9.07;8.37;;;23.10;99.90;;;;;;4954338;29;20436;-78
2021/06/12 05:42:01;;;;;;;9.67;8.80;;;22.80;99.90;;;;;;4956090;28;20436;-80
2021/06/12 05:44:26;;;;;;;9.93;8.83;;;22.80;99.90;;;;;;4953297;28;20195;-80
2021/06/12 05:46:52;;;;;;;9.83;8.97;;;22.80;99.90;;;;;;4955937;28;20555;-79
2021/06/12 05:49:19;;;;;;;10.20;9.30;;;22.70;99.90;;;;;;4954668;28;20184;-79
2021/06/12 05:51:44;;;;;;;11.13;10.03;;;22.80;99.90;;;;;;4953684;28;20710;-79
2021/06/12 05:54:10;;;;;;;10.50;9.03;;;22.80;99.90;;;;;;4953650;28;20456;-80
2021/06/12 05:56:36;;;;;;;10.63;9.83;;;22.90;99.90;;;;;;4953455;28;20267;-79
2021/06/12 05:59:02;;;;;;;9.37;8.67;;;23.10;99.90;;;;;;4953602;28;20831;-79
2021/06/12 06:01:28;;;;;;;10.00;9.03;;;23.30;99.90;;;;;;4954334;28;20527;-75
2021/06/12 06:03:53;;;;;;;9.80;8.80;;;23.60;99.90;;;;;;4952496;28;20905;-75
2021/06/12 06:06:19;;;;;;;12.03;10.70;;;23.60;99.90;;;;;;4944973;29;20233;-74
2021/06/12 06:08:44;;;;;;;13.13;9.70;;;23.70;99.90;;;;;;4953190;28;20676;-76
2021/06/12 06:11:10;;;;;;;10.13;9.17;;;23.90;99.90;;;;;;4950947;28;20220;-74
2021/06/12 06:13:40;;;;;;;10.20;9.20;;;24.20;99.90;;;;;;4953065;28;20184;-75
2021/06/12 06:16:06;;;;;;;10.57;9.67;;;24.60;99.90;;;;;;4948864;28;20204;-75
2021/06/12 06:18:32;;;;;;;11.50;10.27;;;24.90;99.90;;;;;;4955802;28;20969;-79
2021/06/12 06:20:58;;;;;;;10.50;9.57;;;24.90;99.90;;;;;;4955968;28;20576;-79
2021/06/12 06:23:23;;;;;;;11.80;9.73;;;24.90;99.90;;;;;;4959265;29;20934;-79
2021/06/12 06:25:49;;;;;;;14.33;9.97;;;25.00;99.90;;;;;;4947723;28;20199;-75
2021/06/12 06:28:14;;;;;;;11.33;10.23;;;25.30;99.90;;;;;;4951918;29;20562;-76
2021/06/12 06:30:40;;;;;;;10.20;9.30;;;25.30;99.90;;;;;;4956109;28;20216;-77
2021/06/12 06:33:06;;;;;;;10.53;9.63;;;25.50;99.90;;;;;;4953284;28;20685;-76
2021/06/12 06:35:31;;;;;;;12.43;10.20;;;25.80;99.90;;;;;;4957483;28;20259;-76
2021/06/12 06:37:57;;;;;;;11.17;9.60;;;26.20;99.90;;;;;;4949602;29;20281;-76
2021/06/12 06:40:23;;;;;;;9.87;8.97;;;26.50;99.90;;;;;;4937833;29;20193;-79
2021/06/12 06:42:48;;;;;;;10.30;9.13;;;26.60;99.90;;;;;;4945685;29;20204;-74
2021/06/12 06:45:14;;;;;;;9.77;8.90;;;26.50;99.90;;;;;;4956763;28;20213;-74
2021/06/12 06:47:39;;;;;;;11.83;8.60;;;26.80;99.90;;;;;;4955273;28;20235;-76
2021/06/12 06:50:06;;;;;;;9.30;8.50;;;27.00;99.90;;;;;;4953144;28;20271;-75
2021/06/12 06:52:32;;;;;;;9.23;8.33;;;27.30;99.90;;;;;;4953256;28;20585;-76
2021/06/12 06:54:57;;;;;;;14.93;8.67;;;27.70;99.90;;;;;;4952626;29;20451;-76
2021/06/12 06:57:23;;;;;;;8.00;7.30;;;27.60;99.90;;;;;;4956310;28;20203;-76
2021/06/12 06:59:49;;;;;;;9.10;8.30;;;27.30;99.90;;;;;;4954697;28;20189;-75
2021/06/12 07:02:14;;;;;;;8.87;7.97;;;27.50;99.90;;;;;;4956521;28;20200;-75
2021/06/12 07:04:40;;;;;;;7.87;7.27;;;27.10;99.90;;;;;;4952665;28;20665;-74
2021/06/12 07:07:06;;;;;;;9.90;7.70;;;26.80;99.90;;;;;;4950185;28;20667;-75
2021/06/12 07:09:32;;;;;;;7.80;7.10;;;26.90;99.90;;;;;;4954917;28;20184;-74
2021/06/12 07:11:59;;;;;;;6.90;6.40;;;27.40;99.90;;;;;;4956520;28;20551;-76
2021/06/12 07:14:26;;;;;;;7.03;6.20;;;27.70;99.90;;;;;;4955853;28;20444;-76
2021/06/12 07:16:52;;;;;;;6.83;6.33;;;28.30;99.90;;;;;;4955392;28;20440;-76
2021/06/12 07:19:17;;;;;;;5.33;5.03;;;28.70;99.90;;;;;;4957478;28;20427;-76
2021/06/12 07:21:43;;;;;;;5.27;4.87;;;28.90;99.90;;;;;;4951189;28;20223;-76
2021/06/12 07:24:08;;;;;;;4.53;4.20;;;28.80;99.90;;;;;;4954696;29;20189;-76
2021/06/12 07:26:34;;;;;;;5.97;5.37;;;29.00;99.90;;;;;;4953779;28;20216;-76
2021/06/12 07:28:59;;;;;;;5.57;5.07;;;29.00;99.90;;;;;;4956409;28;20184;-76
2021/06/12 07:31:25;;;;;;;5.00;4.70;;;29.10;99.90;;;;;;4950741;28;20722;-76
2021/06/12 07:33:50;;;;;;;4.73;4.43;;;29.10;99.90;;;;;;4955344;28;20681;-76
2021/06/12 07:36:16;;;;;;;4.63;4.33;;;29.40;99.90;;;;;;4953813;28;20192;-80
2021/06/12 07:38:41;;;;;;;5.17;4.67;;;29.60;99.90;;;;;;4951382;29;20230;-77
2021/06/12 07:41:07;;;;;;;7.47;4.60;;;29.90;99.90;;;;;;4953691;28;20212;-76
2021/06/12 07:43:32;;;;;;;5.10;4.67;;;30.00;99.90;;;;;;4955686;29;20207;-77
2021/06/12 07:45:58;;;;;;;4.37;4.10;;;30.50;99.90;;;;;;4956751;28;20643;-75
2021/06/12 07:48:24;;;;;;;4.80;4.17;;;30.70;99.90;;;;;;4953237;28;20192;-76
2021/06/12 07:50:49;;;;;;;4.90;4.50;;;30.60;99.90;;;;;;4957317;28;20196;-76
2021/06/12 07:53:15;;;;;;;4.93;4.53;;;30.50;99.90;;;;;;4952930;28;20207;-76
2021/06/12 07:55:40;;;;;;;4.30;4.00;;;30.70;99.90;;;;;;4957116;28;20208;-75
2021/06/12 07:58:06;;;;;;;5.53;4.90;;;31.00;99.90;;;;;;4954677;28;20223;-76
2021/06/12 08:00:31;;;;;;;4.77;4.47;;;31.00;99.90;;;;;;4954611;28;20664;-76
2021/06/12 08:02:57;;;;;;;4.57;4.10;;;30.90;99.90;;;;;;4952153;28;20264;-76
2021/06/12 08:05:24;;;;;;;4.50;4.10;;;31.20;99.90;;;;;;4955981;28;20215;-76
2021/06/12 08:07:50;;;;;;;5.07;4.67;;;31.80;99.90;;;;;;4953872;28;20196;-76
2021/06/12 08:10:16;;;;;;;4.53;4.13;;;32.10;99.90;;;;;;4952294;28;20444;-76
2021/06/12 08:12:41;;;;;;;6.60;4.23;;;32.00;99.90;;;;;;4955949;28;20812;-79
2021/06/12 08:15:09;;;;;;;3.90;3.60;;;32.10;99.90;;;;;;4954563;28;20188;-77
2021/06/12 08:17:34;;;;;;;4.70;4.07;;;32.40;99.90;;;;;;4956826;28;20566;-78
2021/06/12 08:20:00;;;;;;;8.30;4.60;;;32.20;99.90;;;;;;4953636;28;20499;-76
2021/06/12 08:22:26;;;;;;;4.90;4.60;;;32.30;99.90;;;;;;4948197;29;20216;-76
2021/06/12 08:24:51;;;;;;;7.90;4.73;;;32.60;99.90;;;;;;4953876;28;20180;-77
2021/06/12 08:27:17;;;;;;;6.40;4.87;;;32.90;99.90;;;;;;4956258;28;20192;-77
2021/06/12 08:29:43;;;;;;;6.20;4.63;;;32.80;99.90;;;;;;4955207;28;20181;-78
2021/06/12 08:32:10;;;;;;;5.67;5.17;;;32.60;99.90;;;;;;4951131;28;20278;-77
2021/06/12 08:34:36;;;;;;;8.57;5.90;;;32.00;99.90;;;;;;4953196;29;20987;-77
2021/06/12 08:37:03;;;;;;;7.03;5.83;;;31.60;99.90;;;;;;4949322;28;20450;-77
2021/06/12 08:39:32;;;;;;;7.93;5.70;;;31.00;99.90;;;;;;4956685;28;20771;-76
2021/06/12 08:41:58;;;;;;;6.17;5.67;;;31.20;99.90;;;;;;4951849;28;20970;-76
2021/06/12 08:44:25;;;;;;;10.57;5.67;;;31.50;99.90;;;;;;4956519;28;20420;-78
2021/06/12 08:46:51;;;;;;;6.10;5.60;;;32.20;99.90;;;;;;4955073;28;20444;-78
2021/06/12 08:49:17;;;;;;;6.47;5.87;;;32.80;99.90;;;;;;4955928;28;20467;-78
2021/06/12 08:51:44;;;;;;;6.07;4.90;;;32.90;99.90;;;;;;4951883;28;20635;-78
2021/06/12 08:54:17;;;;;;;9.07;5.57;;;33.00;99.90;;;;;;4952610;29;20436;-77
2021/06/12 08:56:45;;;;;;;4.77;4.47;;;32.60;99.90;;;;;;4953489;28;20467;-78
2021/06/12 08:59:11;;;;;;;7.00;5.07;;;32.20;99.90;;;;;;4954457;29;20460;-76
2021/06/12 09:01:36;;;;;;;6.93;4.97;;;31.90;99.90;;;;;;4954726;28;20491;-76
2021/06/12 09:04:02;;;;;;;4.40;4.00;;;32.00;99.90;;;;;;4948760;28;20577;-76
2021/06/12 09:06:28;;;;;;;4.30;3.90;;;32.00;99.90;;;;;;4951387;28;20195;-77
2021/06/12 09:08:53;;;;;;;3.93;3.60;;;32.80;99.90;;;;;;4952445;28;20847;-76
2021/06/12 09:11:19;;;;;;;3.93;3.50;;;33.50;99.90;;;;;;4955166;28;20200;-76
2021/06/12 09:13:53;;;;;;;3.10;2.90;;;33.40;99.90;;;;;;4952951;28;20181;-76
2021/06/12 09:16:30;;;;;;;4.93;2.70;;;33.70;99.90;;;;;;4952672;29;20424;-76
2021/06/12 09:19:25;;;;;;;2.60;2.50;;;33.60;99.90;;;;;;4953046;28;20538;-76
2021/06/12 09:21:59;;;;;;;2.47;2.30;;;33.80;99.90;;;;;;4925001;29;20487;-78
2021/06/12 09:24:34;;;;;;;2.10;2.00;;;33.30;99.90;;;;;;4953905;28;20486;-78
2021/06/12 09:27:03;;;;;;;1.67;1.57;;;32.90;99.90;;;;;;4953096;28;20443;-76
2021/06/12 09:29:43;;;;;;;1.93;1.83;;;32.70;99.90;;;;;;4952833;28;20544;-76
2021/06/12 09:32:13;;;;;;;2.17;2.07;;;32.30;99.90;;;;;;4952728;28;20467;-76
2021/06/12 09:34:39;;;;;;;2.40;2.20;;;32.90;99.90;;;;;;4948135;28;20444;-76
2021/06/12 09:37:23;;;;;;;2.53;2.30;;;33.10;99.90;;;;;;4953237;28;20436;-76
2021/06/12 09:40:11;;;;;;;2.57;2.20;;;33.20;99.90;;;;;;4954659;28;20425;-76
2021/06/12 09:42:40;;;;;;;2.20;2.10;;;33.30;99.90;;;;;;4934904;29;20487;-76
2021/06/12 09:45:08;;;;;;;2.70;2.47;;;33.10;99.90;;;;;;4935950;29;20468;-76
2021/06/12 09:47:34;;;;;;;3.83;2.50;;;33.00;99.90;;;;;;4950734;29;20536;-76
2021/06/12 09:50:00;;;;;;;2.30;2.10;;;32.90;99.90;;;;;;4954575;28;20527;-76
2021/06/12 09:52:26;;;;;;;2.47;2.37;;;32.70;99.90;;;;;;4947185;28;20208;-76
2021/06/12 09:54:52;;;;;;;2.77;2.57;;;32.50;99.90;;;;;;4955196;28;20511;-76
2021/06/12 09:57:23;;;;;;;5.40;2.43;;;32.30;99.90;;;;;;4950527;28;20311;-76
2021/06/12 09:59:53;;;;;;;5.83;2.70;;;32.50;99.90;;;;;;4935797;29;20187;-76
2021/06/12 10:02:39;;;;;;;2.80;1.90;;;32.50;99.90;;;;;;4940927;29;20547;-76
2021/06/12 10:05:07;;;;;;;5.17;2.87;;;32.20;99.90;;;;;;4948628;28;20514;-76
2021/06/12 10:07:33;;;;;;;2.27;2.10;;;32.20;99.90;;;;;;4950646;28;20447;-78
2021/06/12 10:10:03;;;;;;;3.03;1.90;;;32.60;99.90;;;;;;4955145;28;20507;-76
2021/06/12 10:12:29;;;;;;;2.10;1.93;;;33.20;99.90;;;;;;4952410;28;20196;-76
2021/06/12 10:14:57;;;;;;;4.73;2.20;;;33.20;99.90;;;;;;4954447;28;20478;-76
2021/06/12 10:17:23;;;;;;;1.97;1.53;;;33.50;99.90;;;;;;4955226;28;20211;-76
2021/06/12 10:19:53;;;;;;;2.23;1.70;;;33.50;99.90;;;;;;4950747;28;20444;-77
2021/06/12 10:22:19;;;;;;;2.80;1.80;;;33.40;99.90;;;;;;4953007;28;20585;-77
2021/06/12 10:24:46;;;;;;;3.13;1.70;;;33.40;99.90;;;;;;4952694;28;20447;-76
2021/06/12 10:27:14;;;;;;;3.00;2.80;;;33.20;99.90;;;;;;4954934;28;20511;-76
2021/06/12 10:29:42;;;;;;;4.60;2.67;;;32.60;99.90;;;;;;4950980;28;20798;-76
2021/06/12 10:32:09;;;;;;;2.40;2.20;;;32.70;99.90;;;;;;4945735;28;20472;-76
2021/06/12 10:34:36;;;;;;;2.50;2.17;;;32.60;99.90;;;;;;4951656;29;20821;-76
2021/06/12 10:37:04;;;;;;;2.00;1.90;;;32.90;99.90;;;;;;4951954;28;20446;-76
2021/06/12 10:39:35;;;;;;;1.90;1.80;;;33.20;99.90;;;;;;4951806;28;20448;-76
2021/06/12 10:42:13;;;;;;;2.90;2.23;;;33.40;99.90;;;;;;4951571;28;20828;-76
2021/06/12 10:44:50;;;;;;;4.27;2.30;;;32.90;99.90;;;;;;4953484;28;20511;-74
2021/06/12 10:47:38;;;;;;;2.80;2.60;;;33.20;99.90;;;;;;4953255;29;20474;-76
2021/06/12 10:50:25;;;;;;;2.70;2.60;;;33.10;99.90;;;;;;4952690;28;20476;-76
2021/06/12 10:53:11;;;;;;;2.90;2.30;;;32.90;99.90;;;;;;4957272;28;20969;-77
2021/06/12 10:55:45;;;;;;;3.17;2.30;;;33.10;99.90;;;;;;4951896;28;20434;-79
2021/06/12 10:58:29;;;;;;;3.10;2.53;;;33.20;99.90;;;;;;4954025;28;20491;-77
2021/06/12 11:01:17;;;;;;;2.57;2.37;;;33.00;99.90;;;;;;4952332;28;20806;-76
2021/06/12 11:04:00;;;;;;;2.23;2.13;;;33.10;99.90;;;;;;4948294;28;20531;-76
2021/06/12 11:06:49;;;;;;;3.07;2.77;;;33.20;99.90;;;;;;4954149;28;20416;-77
2021/06/12 11:09:14;;;;;;;3.00;2.53;;;33.10;99.90;;;;;;4936945;29;20417;-76
2021/06/12 11:11:42;;;;;;;2.63;2.43;;;32.90;99.90;;;;;;4938022;29;20201;-76
2021/06/12 11:14:23;;;;;;;4.53;3.30;;;32.90;99.90;;;;;;4955022;29;20317;-77
2021/06/12 11:17:10;;;;;;;4.70;2.77;;;32.90;99.90;;;;;;4957035;28;20922;-76
2021/06/12 11:19:35;;;;;;;3.03;2.80;;;32.70;99.90;;;;;;4955112;29;20920;-76
2021/06/12 11:22:25;;;;;;;2.93;2.80;;;32.40;99.90;;;;;;4954329;28;20460;-76
2021/06/12 11:24:53;;;;;;;3.30;2.67;;;31.90;99.90;;;;;;4955780;29;20192;-75
2021/06/12 11:27:46;;;;;;;4.07;3.03;;;31.80;99.90;;;;;;4957035;28;20412;-77
2021/06/12 11:30:22;;;;;;;3.07;2.87;;;31.30;99.90;;;;;;4955392;29;20440;-77
2021/06/12 11:32:57;;;;;;;2.40;2.20;;;31.10;99.90;;;;;;4952573;28;20508;-75
2021/06/12 11:35:43;;;;;;;2.53;2.33;;;30.70;99.90;;;;;;4954183;29;20458;-76
2021/06/12 11:38:12;;;;;;;4.00;2.00;;;30.70;99.90;;;;;;4954946;29;20499;-77
2021/06/12 11:40:40;;;;;;;4.27;2.20;;;30.60;99.90;;;;;;4953695;28;20451;-77
2021/06/12 11:43:06;;;;;;;8.50;2.20;;;30.30;99.90;;;;;;4956914;28;20428;-77
2021/06/12 11:45:35;;;;;;;3.20;2.63;;;30.50;99.90;;;;;;4952724;28;20566;-78
2021/06/12 11:48:18;;;;;;;2.80;2.57;;;30.50;99.90;;;;;;4957171;28;20180;-77
2021/06/12 11:50:46;;;;;;;2.90;2.70;;;30.20;99.90;;;;;;4952778;28;20531;-77
2021/06/12 11:53:16;;;;;;;2.43;1.93;;;30.30;99.90;;;;;;4955398;28;20455;-76
2021/06/12 11:55:43;;;;;;;2.40;2.10;;;30.30;99.90;;;;;;4954908;28;20669;-77
2021/06/12 11:58:08;;;;;;;2.43;2.33;;;30.60;99.90;;;;;;4954694;28;20504;-77
2021/06/12 12:00:36;;;;;;;2.20;2.10;;;30.60;99.90;;;;;;4954815;28;20487;-77
2021/06/12 12:03:09;;;;;;;2.37;2.17;;;30.70;99.90;;;;;;4957165;28;20185;-76
2021/06/12 12:05:40;;;;;;;2.60;2.37;;;30.80;99.90;;;;;;4955629;28;20901;-77
2021/06/12 12:08:16;;;;;;;2.30;2.10;;;30.90;99.90;;;;;;4952452;29;20439;-77
2021/06/12 12:10:45;;;;;;;1.80;1.70;;;30.90;99.90;;;;;;4956653;28;20841;-77
2021/06/12 12:13:23;;;;;;;2.50;1.53;;;30.70;99.90;;;;;;4953895;28;20472;-76
2021/06/12 12:15:48;;;;;;;2.30;1.60;;;30.80;99.90;;;;;;4955426;28;20419;-76
2021/06/12 12:18:14;;;;;;;1.80;1.70;;;30.60;99.90;;;;;;4952191;28;21044;-76
2021/06/12 12:20:49;;;;;;;2.33;1.77;;;30.40;99.90;;;;;;4955625;28;20181;-76
2021/06/12 12:23:28;;;;;;;1.47;1.27;;;30.00;99.90;;;;;;4953430;28;20207;-76
2021/06/12 12:26:08;;;;;;;5.73;1.80;;;30.00;99.90;;;;;;4955930;28;20517;-78
2021/06/12 12:29:01;;;;;;;1.73;1.60;;;30.10;99.90;;;;;;4951803;28;20437;-74
2021/06/12 12:31:29;;;;;;;4.43;1.90;;;29.90;99.90;;;;;;4955297;28;20540;-77
2021/06/12 12:33:57;;;;;;;3.17;1.73;;;29.90;99.90;;;;;;4949611;28;20448;-76
2021/06/12 12:36:23;;;;;;;5.00;2.43;;;30.00;99.90;;;;;;4956243;28;20404;-77
2021/06/12 12:39:01;;;;;;;3.13;1.63;;;29.80;99.90;;;;;;4953632;28;20467;-76
2021/06/12 12:41:28;;;;;;;4.40;2.33;;;29.70;99.90;;;;;;4956236;28;20961;-78
2021/06/12 12:44:08;;;;;;;2.60;2.10;;;29.60;99.90;;;;;;4953511;28;20481;-76
2021/06/12 12:46:36;;;;;;;2.07;1.87;;;29.70;99.90;;;;;;4956013;28;20460;-76
2021/06/12 12:49:02;;;;;;;6.60;1.67;;;29.80;99.90;;;;;;4954057;28;20429;-77
2021/06/12 12:51:28;;;;;;;2.07;1.97;;;29.90;99.90;;;;;;4953792;28;20830;-77
2021/06/12 12:53:53;;;;;;;2.40;1.70;;;29.80;99.90;;;;;;4952547;28;20438;-77
2021/06/12 12:56:19;;;;;;;2.00;1.90;;;29.60;99.90;;;;;;4953865;28;20220;-76
2021/06/12 12:58:55;;;;;;;8.83;2.10;;;29.70;99.90;;;;;;4955582;28;20617;-76
2021/06/12 13:01:21;;;;;;;5.47;1.57;;;29.80;99.90;;;;;;4951519;28;20703;-76
2021/06/12 13:03:52;;;;;;;1.80;1.70;;;29.80;99.90;;;;;;4955276;28;20507;-76
2021/06/12 13:06:40;;;;;;;2.07;1.27;;;29.90;99.90;;;;;;4952581;28;20208;-76
2021/06/12 13:09:17;;;;;;;1.47;1.37;;;29.80;99.90;;;;;;4935684;29;20427;-78
2021/06/12 13:11:53;;;;;;;3.90;1.40;;;29.60;99.90;;;;;;4942496;28;20511;-76
2021/06/12 13:14:27;;;;;;;1.20;1.10;;;29.40;99.90;;;;;;4954600;28;20416;-76
2021/06/12 13:17:00;;;;;;;4.10;1.37;;;29.30;99.90;;;;;;4952656;28;20436;-73
2021/06/12 13:19:53;;;;;;;4.90;1.47;;;29.40;99.90;;;;;;4954627;28;20475;-75
2021/06/12 13:22:35;;;;;;;0.90;0.90;;;29.60;99.90;;;;;;4943664;28;20463;-79
2021/06/12 13:25:05;;;;;;;1.17;1.07;;;29.40;99.90;;;;;;4949391;29;20822;-76
2021/06/12 13:27:48;;;;;;;2.30;1.20;;;29.40;99.90;;;;;;4942641;29;20436;-76
2021/06/12 13:30:16;;;;;;;1.97;1.87;;;29.30;99.90;;;;;;4953949;28;20404;-77
2021/06/12 13:32:48;;;;;;;1.23;1.13;;;29.20;99.90;;;;;;4949723;28;20476;-77
2021/06/12 13:35:31;;;;;;;1.60;1.47;;;29.30;99.90;;;;;;4951503;29;20832;-76
2021/06/12 13:38:09;;;;;;;4.20;1.53;;;29.00;99.90;;;;;;4949756;28;20464;-75
2021/06/12 13:40:37;;;;;;;2.43;1.37;;;29.00;99.90;;;;;;4953851;28;20416;-77
2021/06/12 13:43:16;;;;;;;1.20;1.10;;;29.10;99.90;;;;;;4951598;28;20503;-77
2021/06/12 13:45:42;;;;;;;1.90;1.07;;;29.20;99.90;;;;;;4951746;28;20436;-76
2021/06/12 13:48:08;;;;;;;1.20;1.10;;;29.40;99.90;;;;;;4952484;28;20439;-77
2021/06/12 13:50:34;;;;;;;1.60;1.13;;;29.40;99.90;;;;;;4954104;28;20909;-76
2021/06/12 13:52:59;;;;;;;4.60;1.10;;;29.50;99.90;;;;;;4951251;28;20188;-77
2021/06/12 13:55:25;;;;;;;1.10;1.00;;;29.30;99.90;;;;;;4950989;29;20620;-81
2021/06/12 13:57:51;;;;;;;1.20;1.10;;;29.10;99.90;;;;;;4954015;28;20217;-80
2021/06/12 14:00:17;;;;;;;0.93;0.93;;;28.70;99.90;;;;;;4953289;28;20476;-79
2021/06/12 14:02:43;;;;;;;1.37;0.97;;;28.60;99.90;;;;;;4952898;28;20432;-78
2021/06/12 14:05:10;;;;;;;5.70;1.30;;;28.70;99.90;;;;;;4955360;28;20447;-79
2021/06/12 14:07:40;;;;;;;3.20;1.40;;;28.70;99.90;;;;;;4946597;29;20194;-79
2021/06/12 14:10:10;;;;;;;1.20;0.87;;;28.60;99.90;;;;;;4951994;29;20978;-79
2021/06/12 14:12:37;;;;;;;1.00;1.00;;;28.50;99.90;;;;;;4954772;28;20823;-77
2021/06/12 14:15:04;;;;;;;1.73;1.10;;;28.50;99.90;;;;;;4953941;28;20420;-78
2021/06/12 14:17:29;;;;;;;1.20;1.10;;;28.50;99.90;;;;;;4953537;28;20531;-78
2021/06/12 14:19:55;;;;;;;1.83;1.40;;;28.60;99.90;;;;;;4953666;28;20424;-78
2021/06/12 14:22:20;;;;;;;1.00;0.90;;;28.50;99.90;;;;;;4944609;28;20209;-78
2021/06/12 14:24:46;;;;;;;1.20;1.00;;;28.50;99.90;;;;;;4954385;28;20243;-78
2021/06/12 14:27:11;;;;;;;3.17;0.90;;;28.40;99.90;;;;;;4950917;28;20193;-78
2021/06/12 14:29:43;;;;;;;1.80;1.07;;;28.30;99.90;;;;;;4955117;28;20193;-78
2021/06/12 14:32:08;;;;;;;4.57;1.20;;;28.30;99.90;;;;;;4948540;28;20750;-78
2021/06/12 14:34:34;;;;;;;2.40;1.30;;;28.20;99.90;;;;;;4952277;28;20485;-78
2021/06/12 14:36:59;;;;;;;1.67;1.27;;;28.00;99.90;;;;;;4951481;28;20193;-78
2021/06/12 14:39:25;;;;;;;1.13;1.13;;;28.20;99.90;;;;;;4953426;28;20193;-79
2021/06/12 14:41:54;;;;;;;2.00;1.07;;;28.20;99.90;;;;;;4958102;28;20196;-77
2021/06/12 14:44:19;;;;;;;1.10;1.00;;;28.10;99.90;;;;;;4955931;29;20735;-78
2021/06/12 14:46:45;;;;;;;1.30;0.70;;;27.90;99.90;;;;;;4956940;28;20495;-78
2021/06/12 14:49:11;;;;;;;1.60;1.03;;;27.90;99.90;;;;;;4954468;28;20244;-80
2021/06/12 14:51:37;;;;;;;1.57;0.90;;;27.80;99.90;;;;;;4957599;28;20223;-78
2021/06/12 14:54:03;;;;;;;0.80;0.80;;;27.90;99.90;;;;;;4953312;28;20564;-78
2021/06/12 14:56:29;;;;;;;1.63;0.87;;;27.90;99.90;;;;;;4957274;28;20447;-78
2021/06/12 14:58:55;;;;;;;12.90;1.60;;;27.90;99.90;;;;;;4955392;28;20499;-78
2021/06/12 15:01:21;;;;;;;1.70;0.90;;;27.80;99.90;;;;;;4955264;28;20295;-78
2021/06/12 15:03:47;;;;;;;2.23;1.60;;;27.70;99.90;;;;;;4956308;28;20846;-79
2021/06/12 15:06:14;;;;;;;0.97;0.70;;;27.70;99.90;;;;;;4957699;28;20267;-79
2021/06/12 15:08:40;;;;;;;1.00;0.80;;;27.70;99.90;;;;;;4954909;29;20444;-78
2021/06/12 15:11:06;;;;;;;1.60;1.23;;;27.60;99.90;;;;;;4953243;28;20468;-78
2021/06/12 15:13:33;;;;;;;0.77;0.77;;;27.60;99.90;;;;;;4956430;28;20783;-79
2021/06/12 15:15:58;;;;;;;0.67;0.67;;;27.60;99.90;;;;;;4956047;28;20212;-80
2021/06/12 15:18:24;;;;;;;0.90;0.70;;;27.60;99.90;;;;;;4959404;28;20889;-81
2021/06/12 15:20:50;;;;;;;1.93;0.80;;;27.50;99.90;;;;;;4956484;28;20195;-78
2021/06/12 15:23:15;;;;;;;0.70;0.70;;;27.40;99.90;;;;;;4951055;29;20187;-79
2021/06/12 15:25:41;;;;;;;1.20;1.10;;;27.50;99.90;;;;;;4956266;28;20593;-80
2021/06/12 15:28:07;;;;;;;1.20;0.70;;;27.50;99.90;;;;;;4958178;28;20181;-78
2021/06/12 15:30:33;;;;;;;1.60;0.80;;;27.50;99.90;;;;;;4957610;28;20177;-80
2021/06/12 15:32:59;;;;;;;1.00;0.63;;;27.50;99.90;;;;;;4952322;29;20503;-79
2021/06/12 15:35:26;;;;;;;0.70;0.60;;;27.40;99.90;;;;;;4955574;29;20188;-80
2021/06/12 15:37:51;;;;;;;1.70;1.60;;;27.30;99.90;;;;;;4948353;28;20523;-80
2021/06/12 15:40:17;;;;;;;3.23;0.70;;;27.30;99.90;;;;;;4956157;28;20424;-80
2021/06/12 15:42:43;;;;;;;3.90;1.00;;;27.20;99.90;;;;;;4951732;28;20677;-80
2021/06/12 15:45:09;;;;;;;6.43;0.63;;;27.10;99.90;;;;;;4958117;28;20424;-80
2021/06/12 15:47:35;;;;;;;1.30;0.70;;;27.10;99.90;;;;;;4954957;28;20463;-80
2021/06/12 15:50:02;;;;;;;1.03;0.70;;;27.00;99.90;;;;;;4956743;28;20181;-80
2021/06/12 15:52:28;;;;;;;1.10;1.00;;;27.00;99.90;;;;;;4954396;28;20607;-80
2021/06/12 15:54:54;;;;;;;1.80;0.90;;;26.90;99.90;;;;;;4954926;28;20576;-81
2021/06/12 15:57:19;;;;;;;2.03;1.17;;;26.80;99.90;;;;;;4956939;28;20280;-79
2021/06/12 15:59:45;;;;;;;4.70;0.80;;;26.70;99.90;;;;;;4954666;28;20185;-80
2021/06/12 16:02:10;;;;;;;2.30;0.90;;;26.60;99.90;;;;;;4956618;28;20746;-80
2021/06/12 16:04:36;;;;;;;5.10;0.90;;;26.50;99.90;;;;;;4953000;28;20271;-80
2021/06/12 16:07:02;;;;;;;1.40;1.00;;;26.30;99.90;;;;;;4955527;28;20259;-80
2021/06/12 16:09:28;;;;;;;2.50;0.80;;;26.40;99.90;;;;;;4956017;29;20200;-80
2021/06/12 16:11:54;;;;;;;1.87;0.87;;;26.50;99.90;;;;;;4957901;28;20428;-80
2021/06/12 16:14:19;;;;;;;1.67;0.70;;;26.60;99.90;;;;;;4955397;28;20173;-80
2021/06/12 16:16:45;;;;;;;1.40;0.90;;;26.60;99.90;;;;;;4957102;28;20446;-80
2021/06/12 16:19:10;;;;;;;1.20;0.90;;;26.50;99.90;;;;;;4956458;28;20722;-80
2021/06/12 16:21:36;;;;;;;0.70;0.70;;;26.40;99.90;;;;;;4955757;28;20271;-79
2021/06/12 16:24:01;;;;;;;0.60;0.60;;;26.40;99.90;;;;;;4953546;28;20560;-80
2021/06/12 16:26:27;;;;;;;1.13;0.50;;;26.30;99.90;;;;;;4951797;28;20725;-81
2021/06/12 16:28:52;;;;;;;3.53;0.70;;;26.20;99.90;;;;;;4956158;28;20185;-80
2021/06/12 16:31:18;;;;;;;3.57;0.90;;;26.20;99.90;;;;;;4954346;28;20702;-80
2021/06/12 16:33:43;;;;;;;0.73;0.73;;;26.10;99.90;;;;;;4950304;28;20200;-80
2021/06/12 16:36:09;;;;;;;2.30;1.03;;;26.00;99.90;;;;;;4954468;28;20189;-80
2021/06/12 16:38:35;;;;;;;1.67;0.90;;;25.90;99.90;;;;;;4957773;28;20236;-81
2021/06/12 16:41:01;;;;;;;4.77;0.90;;;25.70;99.90;;;;;;4962601;28;20659;-80
2021/06/12 16:43:27;;;;;;;6.53;0.90;;;25.60;99.90;;;;;;4964182;28;20416;-81
2021/06/12 16:45:53;;;;;;;1.47;1.37;;;25.60;99.90;;;;;;4965837;28;20431;-80
2021/06/12 16:48:18;;;;;;;2.60;2.40;;;25.70;99.90;;;;;;4962437;28;20196;-80
2021/06/12 16:50:44;;;;;;;2.20;1.10;;;25.80;99.90;;;;;;4967352;28;20208;-80
2021/06/12 16:53:10;;;;;;;2.30;0.83;;;25.80;99.90;;;;;;4961955;28;20257;-79
2021/06/12 17:00:34;;;;;;;0.73;0.70;;;25.40;99.90;;;;;;4953010;28;20424;-79
2021/06/12 17:03:00;;;;;;;2.37;1.33;;;25.50;99.90;;;;;;4952735;28;20464;-80
2021/06/12 17:05:26;;;;;;;8.13;1.30;;;25.40;99.90;;;;;;4955123;28;20423;-80
2021/06/12 17:07:53;;;;;;;3.13;0.60;;;25.30;99.90;;;;;;4950921;28;20192;-80
2021/06/12 17:10:18;;;;;;;1.87;0.70;;;25.30;99.90;;;;;;4954789;28;20843;-80
2021/06/12 17:12:47;;;;;;;1.60;0.80;;;25.20;99.90;;;;;;4954478;28;20444;-79
2021/06/12 17:15:14;;;;;;;1.80;1.00;;;25.10;99.90;;;;;;4958847;28;20193;-81
2021/06/12 17:17:40;;;;;;;1.03;1.03;;;25.10;99.90;;;;;;4958539;28;20447;-80
2021/06/12 17:20:07;;;;;;;1.50;1.20;;;25.10;99.90;;;;;;4950496;28;20945;-81
2021/06/12 17:22:33;;;;;;;2.00;1.87;;;25.00;99.90;;;;;;4952594;28;20596;-80
2021/06/12 17:24:59;;;;;;;2.07;1.50;;;24.70;99.90;;;;;;4952382;28;20435;-81
2021/06/12 17:27:26;;;;;;;4.03;2.40;;;24.50;99.90;;;;;;4956081;28;20196;-80